KFRG

Republic Airport

Farmingdale, New York, USA
METAR KFRG 201853Z 26009G17KT 10SM FEW036 SCT043 16/08 A2965 RMK AO2 SLP040 T01610083
Observed Flight Rules
Oct-20 @ 18:53 UTC (27 minutes ago) Visual Flight Rules
Wind Visibility Clouds
260° at 9 knots
 Gusting to 17 knots
10 miles
  • Few at 3,600' AGL
  • Scattered at 4,300' AGL
Temperatures Readings
Current 16°C / 61°F
Dewpoint 8°C / 46°F
Humidity 59%
Altimeter 29.65" Hg
Pressure 1004 hPa
Elevation 21
METAR KFRG 201853Z 26009G17KT 10SM FEW036 SCT043 16/08 A2965 RMK AO2 SLP040 T01610083
Observed Flight Rules
Oct-20 @ 18:53 UTC
(27 minutes ago)
VFR
Wind Visibility
260° at 9 knots
 Gusting to 17 knots
10 miles
Clouds
  • Few at 3,600' AGL
  • Scattered at 4,300' AGL
Temperature Dewpoint
16°C / 61°F 8°C / 46°F
Humidity Altimeter Pressure
59% 29.65" Hg 1004 hPa